createdAt,value
2018-01-07T00:02:09.648Z,22.67
2018-01-07T00:04:38.957Z,23.53
2018-01-07T00:07:08.794Z,19.70
2018-01-07T00:09:37.804Z,22.17
2018-01-07T00:12:06.932Z,25.40
2018-01-07T00:14:36.007Z,21.70
2018-01-07T00:17:04.912Z,24.03
2018-01-07T00:19:36.295Z,26.13
2018-01-07T00:22:05.214Z,20.73
2018-01-07T00:24:34.222Z,27.40
2018-01-07T00:27:03.592Z,25.53
2018-01-07T00:29:32.517Z,24.87
2018-01-07T00:32:01.414Z,23.83
2018-01-07T00:34:30.723Z,32.60
2018-01-07T00:36:59.749Z,21.27
2018-01-07T00:39:28.657Z,23.53
2018-01-07T00:41:57.745Z,20.67
2018-01-07T00:44:27.260Z,26.73
2018-01-07T00:46:56.229Z,23.63
2018-01-07T00:49:26.257Z,25.50
2018-01-07T00:51:55.198Z,20.77
2018-01-07T00:54:24.243Z,22.03
2018-01-07T00:56:53.545Z,24.03
2018-01-07T00:59:22.569Z,26.20
2018-01-07T01:01:51.520Z,17.97
2018-01-07T01:04:20.481Z,22.73
2018-01-07T01:06:49.476Z,22.50
2018-01-07T01:09:18.409Z,22.67
2018-01-07T01:11:47.845Z,20.33
2018-01-07T01:14:16.792Z,19.07
2018-01-07T01:16:45.684Z,19.50
2018-01-07T01:19:14.761Z,20.43
2018-01-07T01:21:43.688Z,19.90
2018-01-07T01:24:12.598Z,20.13
2018-01-07T01:26:41.959Z,21.90
2018-01-07T01:29:11.063Z,19.33
2018-01-07T01:31:40.003Z,18.83
2018-01-07T01:34:09.906Z,17.77
2018-01-07T01:36:38.925Z,21.40
2018-01-07T01:39:07.917Z,17.57
2018-01-07T01:41:37.924Z,19.13
2018-01-07T01:44:06.974Z,17.70
2018-01-07T01:46:37.308Z,17.70
2018-01-07T01:49:06.913Z,18.13
2018-01-07T01:51:35.953Z,14.30
2018-01-07T01:54:04.964Z,19.10
2018-01-07T01:56:33.923Z,15.07
2018-01-07T01:59:03.347Z,17.10
2018-01-07T02:01:33.200Z,18.00
2018-01-07T02:04:02.172Z,18.93
2018-01-07T02:06:31.338Z,18.37
2018-01-07T02:09:00.301Z,14.37
2018-01-07T02:11:29.387Z,12.80
2018-01-07T02:13:58.308Z,14.37
2018-01-07T02:16:27.454Z,11.90
2018-01-07T02:18:56.694Z,13.17
2018-01-07T02:21:25.644Z,14.83
2018-01-07T02:23:54.769Z,13.87
2018-01-07T02:26:24.235Z,15.57
2018-01-07T02:28:53.350Z,13.90
2018-01-07T02:31:22.812Z,15.90
2018-01-07T02:33:51.792Z,15.30
2018-01-07T02:36:20.837Z,14.20
2018-01-07T02:38:49.857Z,14.33
2018-01-07T02:41:18.820Z,16.70
2018-01-07T02:43:47.887Z,16.37
2018-01-07T02:46:16.866Z,16.50
2018-01-07T02:48:47.089Z,12.10
2018-01-07T02:51:16.171Z,14.77
2018-01-07T02:53:46.091Z,15.20
2018-01-07T02:56:15.299Z,14.33
2018-01-07T02:58:44.179Z,11.90
2018-01-07T03:01:13.232Z,14.50
2018-01-07T03:03:42.999Z,15.97
2018-01-07T03:06:11.911Z,13.60
2018-01-07T03:08:41.894Z,10.70
2018-01-07T03:11:10.851Z,13.20
2018-01-07T03:13:39.896Z,13.27
2018-01-07T03:16:09.378Z,12.90
2018-01-07T03:18:38.702Z,12.90
2018-01-07T03:21:07.645Z,10.83
2018-01-07T03:23:36.587Z,15.40
2018-01-07T03:26:05.625Z,13.30
2018-01-07T03:28:34.583Z,13.63
2018-01-07T03:31:03.498Z,14.67
2018-01-07T03:33:33.081Z,15.17
2018-01-07T03:36:02.159Z,17.07
2018-01-07T03:38:31.299Z,14.60
2018-01-07T03:41:00.466Z,13.77
2018-01-07T03:43:29.547Z,12.90
2018-01-07T03:45:58.495Z,16.70
2018-01-07T03:48:27.548Z,13.30
2018-01-07T03:50:57.104Z,14.33
2018-01-07T03:53:26.086Z,15.80
2018-01-07T03:55:55.274Z,13.87
2018-01-07T03:58:24.334Z,12.50
2018-01-07T04:00:54.019Z,13.83
2018-01-07T04:03:23.414Z,11.80
2018-01-07T04:05:53.467Z,18.27
2018-01-07T04:08:22.471Z,15.87
2018-01-07T04:10:52.772Z,13.83
2018-01-07T04:13:21.670Z,12.27
2018-01-07T04:15:50.566Z,14.70
2018-01-07T04:18:19.933Z,14.40
2018-01-07T04:20:49.856Z,14.50
2018-01-07T04:23:18.809Z,11.87
2018-01-07T04:25:48.811Z,13.60
2018-01-07T04:28:17.932Z,14.10
2018-01-07T04:30:47.016Z,15.73
2018-01-07T04:33:16.074Z,14.03
2018-01-07T04:35:45.340Z,14.40
2018-01-07T04:38:14.409Z,13.67
2018-01-07T04:40:43.708Z,11.03
2018-01-07T04:43:12.892Z,10.37
2018-01-07T04:45:41.939Z,12.70
2018-01-07T04:48:11.336Z,13.80
2018-01-07T04:50:40.386Z,12.80
2018-01-07T04:53:09.800Z,12.83
2018-01-07T04:55:39.115Z,14.37
2018-01-07T04:58:08.098Z,10.73
2018-01-07T05:00:37.490Z,11.77
2018-01-07T05:03:06.798Z,9.73
2018-01-07T05:05:35.706Z,10.87
2018-01-07T05:08:04.723Z,11.63
2018-01-07T05:10:33.936Z,13.70
2018-01-07T05:13:02.891Z,12.10
2018-01-07T05:15:31.798Z,9.93
2018-01-07T05:18:01.692Z,9.90
2018-01-07T05:20:30.726Z,12.80
2018-01-07T05:22:59.882Z,11.27
2018-01-07T05:25:29.017Z,10.20
2018-01-07T05:27:57.898Z,13.50
2018-01-07T05:30:26.786Z,12.97
2018-01-07T05:32:56.554Z,13.07
2018-01-07T05:35:25.634Z,12.80
2018-01-07T05:37:55.148Z,10.40
2018-01-07T05:40:24.114Z,11.43
2018-01-07T05:42:53.047Z,11.70
2018-01-07T05:45:22.150Z,11.60
2018-01-07T05:47:51.405Z,11.63
2018-01-07T05:50:20.362Z,12.97
2018-01-07T05:52:49.370Z,9.63
2018-01-07T05:55:19.059Z,11.57
2018-01-07T05:57:48.041Z,12.73
2018-01-07T06:00:16.958Z,12.00
2018-01-07T06:02:46.124Z,10.50
2018-01-07T06:05:15.189Z,11.63
2018-01-07T06:07:44.273Z,15.37
2018-01-07T06:10:13.742Z,15.70
2018-01-07T06:12:42.742Z,15.57
2018-01-07T06:15:11.865Z,16.37
2018-01-07T06:17:41.087Z,18.03
2018-01-07T06:20:10.034Z,17.63
2018-01-07T06:22:38.938Z,18.20
2018-01-07T06:25:08.216Z,19.83
2018-01-07T06:27:37.130Z,18.90
2018-01-07T06:30:06.172Z,19.70
2018-01-07T06:32:35.909Z,16.17
2018-01-07T06:35:04.918Z,16.93
2018-01-07T06:37:33.954Z,14.57
2018-01-07T06:40:04.019Z,18.20
2018-01-07T06:42:33.046Z,14.77
2018-01-07T06:45:02.841Z,18.43
2018-01-07T06:47:32.140Z,23.27
2018-01-07T06:50:01.182Z,18.17
2018-01-07T06:52:30.338Z,19.83
2018-01-07T06:54:59.441Z,16.17
2018-01-07T06:57:28.535Z,20.53
2018-01-07T06:59:57.455Z,18.70
2018-01-07T07:02:26.394Z,19.07
2018-01-07T07:04:55.365Z,17.00
2018-01-07T07:07:24.397Z,17.43
2018-01-07T07:09:53.398Z,18.77
2018-01-07T07:12:22.319Z,19.40
2018-01-07T07:14:51.275Z,17.17
2018-01-07T07:17:20.404Z,16.83
2018-01-07T07:19:49.424Z,15.13
2018-01-07T07:22:18.490Z,18.80
2018-01-07T07:24:47.696Z,18.90
2018-01-07T07:27:16.742Z,17.10
2018-01-07T07:29:45.829Z,18.07
2018-01-07T07:32:16.374Z,17.80
2018-01-07T07:34:45.423Z,17.90
2018-01-07T07:37:15.765Z,16.83
2018-01-07T07:39:44.785Z,17.10
2018-01-07T07:42:14.622Z,22.17
2018-01-07T07:44:43.606Z,16.73
2018-01-07T07:47:12.482Z,14.67
2018-01-07T07:49:41.381Z,18.80
2018-01-07T07:52:10.482Z,21.07
2018-01-07T07:54:39.464Z,22.20
2018-01-07T07:57:08.398Z,18.10
2018-01-07T07:59:38.109Z,17.73
2018-01-07T08:02:07.028Z,20.37
2018-01-07T08:04:35.979Z,20.20
2018-01-07T08:07:05.299Z,22.33
2018-01-07T08:09:34.298Z,18.80
2018-01-07T08:12:03.285Z,21.67
2018-01-07T08:14:32.243Z,18.73
2018-01-07T08:17:01.249Z,17.43
2018-01-07T08:19:30.512Z,21.20
2018-01-07T08:21:59.454Z,19.40
2018-01-07T08:24:28.338Z,21.50
2018-01-07T08:26:57.382Z,18.70
2018-01-07T08:29:26.476Z,20.10
2018-01-07T08:31:55.552Z,24.30
2018-01-07T08:34:24.552Z,20.80
2018-01-07T08:36:54.538Z,23.23
2018-01-07T08:39:23.473Z,18.73
2018-01-07T08:41:52.627Z,26.63
2018-01-07T08:44:21.661Z,23.23
2018-01-07T08:46:50.646Z,19.53
2018-01-07T08:49:20.294Z,18.60
2018-01-07T08:51:49.245Z,20.70
2018-01-07T08:54:18.146Z,25.50
2018-01-07T08:56:47.100Z,18.43
2018-01-07T08:59:16.889Z,17.40
2018-01-07T09:01:46.179Z,22.47
2018-01-07T09:04:15.828Z,22.77
2018-01-07T09:06:45.104Z,19.27
2018-01-07T09:09:14.150Z,20.33
2018-01-07T09:11:43.149Z,19.20
2018-01-07T09:14:12.924Z,20.83
2018-01-07T09:16:41.860Z,19.57
2018-01-07T09:19:10.888Z,19.37
2018-01-07T09:21:40.384Z,20.87
2018-01-07T09:24:09.374Z,16.40
2018-01-07T09:26:38.353Z,20.53
2018-01-07T09:29:07.659Z,17.03
2018-01-07T09:31:36.582Z,18.53
2018-01-07T09:34:05.475Z,24.00
2018-01-07T09:36:34.773Z,14.60
2018-01-07T09:39:03.703Z,18.07
2018-01-07T09:41:32.686Z,19.20
2018-01-07T09:44:01.670Z,17.70
2018-01-07T09:46:32.235Z,16.73
2018-01-07T09:49:01.207Z,13.57
2018-01-07T09:51:30.291Z,13.50
2018-01-07T09:53:59.238Z,17.37
2018-01-07T09:56:43.003Z,16.60
2018-01-07T09:59:12.028Z,20.20
2018-01-07T10:01:40.944Z,24.67
2018-01-07T10:04:10.633Z,16.70
2018-01-07T10:06:39.627Z,17.90
2018-01-07T10:09:08.933Z,17.40
2018-01-07T10:11:37.853Z,18.10
2018-01-07T10:14:06.799Z,16.67
2018-01-07T10:16:35.782Z,14.03
2018-01-07T10:19:04.703Z,15.77
2018-01-07T10:21:33.724Z,19.07
2018-01-07T10:24:02.923Z,15.50
2018-01-07T10:26:32.695Z,17.97
2018-01-07T10:29:01.739Z,18.97
2018-01-07T10:31:30.680Z,17.37
2018-01-07T10:33:59.649Z,17.90
2018-01-07T10:36:29.038Z,16.37
2018-01-07T10:38:57.948Z,16.40
2018-01-07T10:41:27.803Z,16.17
2018-01-07T10:43:56.810Z,15.60
2018-01-07T10:46:26.104Z,17.63
2018-01-07T10:48:56.032Z,17.07
2018-01-07T10:51:25.045Z,18.43
2018-01-07T10:53:53.972Z,14.90
2018-01-07T10:56:22.868Z,18.53
2018-01-07T10:58:51.836Z,17.50
2018-01-07T11:01:23.033Z,17.80
2018-01-07T11:03:51.950Z,18.03
2018-01-07T11:06:21.306Z,14.30
2018-01-07T11:08:50.593Z,19.47
2018-01-07T11:11:19.628Z,16.17
2018-01-07T11:13:48.660Z,13.43
2018-01-07T11:16:17.976Z,17.23
2018-01-07T11:18:46.929Z,15.80
2018-01-07T11:21:15.838Z,18.47
2018-01-07T11:23:45.065Z,16.67
2018-01-07T11:26:14.232Z,14.53
2018-01-07T11:28:43.160Z,18.10
2018-01-07T11:31:12.186Z,16.53
2018-01-07T11:33:41.084Z,20.50
2018-01-07T11:36:10.061Z,17.77
2018-01-07T11:38:40.114Z,14.20
2018-01-07T11:41:09.026Z,13.57
2018-01-07T11:43:37.911Z,15.43
2018-01-07T11:46:06.845Z,16.90
2018-01-07T11:48:35.815Z,14.73
2018-01-07T11:51:05.765Z,16.90
2018-01-07T11:53:35.438Z,13.90
2018-01-07T11:56:04.342Z,15.60
2018-01-07T11:58:33.240Z,16.80
2018-01-07T12:01:02.803Z,12.07
2018-01-07T12:03:31.866Z,14.87
2018-01-07T12:06:00.763Z,10.73
2018-01-07T12:08:30.153Z,14.07
2018-01-07T12:10:59.166Z,13.73
2018-01-07T12:13:28.152Z,12.10
2018-01-07T12:15:58.010Z,11.60
2018-01-07T12:18:28.132Z,10.90
2018-01-07T12:20:57.056Z,9.60
2018-01-07T12:23:26.070Z,6.70
2018-01-07T12:25:55.049Z,10.70
2018-01-07T12:28:24.405Z,10.70
2018-01-07T12:30:53.340Z,20.00
2018-01-07T12:33:22.333Z,8.57
2018-01-07T12:35:51.243Z,8.77
2018-01-07T12:38:21.123Z,6.83
2018-01-07T12:40:50.498Z,7.80
2018-01-07T12:43:19.481Z,8.70
2018-01-07T12:45:48.492Z,5.90
2018-01-07T12:48:17.387Z,5.23
2018-01-07T12:50:46.565Z,5.20
2018-01-07T12:53:15.922Z,8.83
2018-01-07T12:55:45.610Z,5.87
2018-01-07T12:58:14.601Z,7.60
2018-01-07T13:00:43.886Z,4.87
2018-01-07T13:03:12.789Z,6.00
2018-01-07T13:05:42.213Z,5.97
2018-01-07T13:08:11.139Z,5.03
2018-01-07T13:10:40.902Z,5.50
2018-01-07T13:13:10.714Z,4.20
2018-01-07T13:15:39.662Z,5.03
2018-01-07T13:18:08.739Z,4.27
2018-01-07T13:20:37.766Z,3.53
2018-01-07T13:23:06.852Z,4.10
2018-01-07T13:25:35.888Z,4.40
2018-01-07T13:28:04.981Z,5.10
2018-01-07T13:30:34.515Z,3.60
2018-01-07T13:33:03.499Z,4.90
2018-01-07T13:35:32.407Z,3.13
2018-01-07T13:38:01.678Z,5.70
2018-01-07T13:40:30.723Z,3.60
2018-01-07T13:42:59.986Z,4.03
2018-01-07T13:45:28.932Z,4.37
2018-01-07T13:47:57.814Z,3.60
2018-01-07T13:50:26.712Z,5.80
2018-01-07T13:52:55.619Z,4.33
2018-01-07T13:55:25.154Z,3.93
2018-01-07T13:57:54.426Z,3.83
2018-01-07T14:00:23.686Z,4.10
2018-01-07T14:02:53.274Z,3.90
2018-01-07T14:05:22.232Z,6.17
2018-01-07T14:07:51.127Z,4.83
2018-01-07T14:10:20.016Z,3.97
2018-01-07T14:12:49.697Z,4.00
2018-01-07T14:15:19.471Z,5.00
2018-01-07T14:17:49.110Z,3.90
2018-01-07T14:20:17.988Z,5.67
2018-01-07T14:22:47.199Z,5.17
2018-01-07T14:25:16.075Z,5.00
2018-01-07T14:27:44.968Z,6.53
2018-01-07T14:30:14.072Z,5.70
2018-01-07T14:32:43.259Z,5.07
2018-01-07T14:35:12.157Z,4.77
2018-01-07T14:37:41.350Z,5.77
2018-01-07T14:40:10.223Z,4.40
2018-01-07T14:42:39.114Z,5.40
2018-01-07T14:45:08.289Z,6.43
2018-01-07T14:47:37.181Z,4.90
2018-01-07T14:50:06.055Z,4.37
2018-01-07T14:52:35.317Z,10.90
2018-01-07T14:55:04.384Z,7.00
2018-01-07T14:57:33.456Z,4.17
2018-01-07T15:00:02.470Z,4.53
2018-01-07T15:02:31.360Z,4.73
2018-01-07T15:05:00.707Z,5.40
2018-01-07T15:07:29.873Z,8.33
2018-01-07T15:09:59.829Z,5.03
2018-01-07T15:12:28.733Z,6.37
2018-01-07T15:14:58.263Z,6.17
2018-01-07T15:17:27.139Z,4.90
2018-01-07T15:19:56.729Z,7.17
2018-01-07T15:22:25.926Z,6.87
2018-01-07T15:24:55.466Z,6.97
2018-01-07T15:27:24.344Z,7.00
2018-01-07T15:29:53.422Z,5.20
2018-01-07T15:32:22.300Z,6.50
2018-01-07T15:34:51.594Z,6.60
2018-01-07T15:37:20.734Z,5.13
2018-01-07T15:39:49.606Z,6.17
2018-01-07T15:42:18.482Z,5.33
2018-01-07T15:44:47.640Z,7.27
2018-01-07T15:47:16.517Z,7.50
2018-01-07T15:49:45.530Z,6.97
2018-01-07T15:52:14.465Z,10.83
2018-01-07T15:54:43.339Z,7.43
2018-01-07T15:57:12.244Z,5.63
2018-01-07T15:59:41.737Z,5.93
2018-01-07T16:02:10.630Z,6.30
2018-01-07T16:04:39.518Z,6.53
2018-01-07T16:07:08.436Z,9.00
2018-01-07T16:09:37.316Z,8.60
2018-01-07T16:12:07.618Z,8.70
2018-01-07T16:14:36.530Z,6.07
2018-01-07T16:17:05.990Z,9.13
2018-01-07T16:19:34.893Z,10.97
2018-01-07T16:22:04.215Z,5.33
2018-01-07T16:24:33.443Z,7.40
2018-01-07T16:27:03.366Z,5.20
2018-01-07T16:29:33.352Z,5.57
2018-01-07T16:32:02.577Z,7.27
2018-01-07T16:34:32.193Z,8.40
2018-01-07T16:37:02.113Z,7.10
2018-01-07T16:39:30.998Z,6.30
2018-01-07T16:41:59.912Z,7.97
2018-01-07T16:44:28.826Z,6.70
2018-01-07T16:46:57.727Z,7.60
2018-01-07T16:49:26.771Z,7.40
2018-01-07T16:51:56.050Z,7.07
2018-01-07T16:54:24.955Z,6.20
2018-01-07T16:56:53.857Z,7.53
2018-01-07T16:59:22.771Z,6.80
2018-01-07T17:01:51.807Z,8.20
2018-01-07T17:04:20.696Z,7.93
2018-01-07T17:06:49.595Z,7.27
2018-01-07T17:09:18.495Z,8.80
2018-01-07T17:11:47.428Z,7.27
2018-01-07T17:14:16.474Z,5.40
2018-01-07T17:16:45.350Z,7.57
2018-01-07T17:19:15.509Z,6.93
2018-01-07T17:21:45.079Z,6.50
2018-01-07T17:24:14.962Z,6.20
2018-01-07T17:26:43.857Z,6.90
2018-01-07T17:29:12.785Z,7.10
2018-01-07T17:31:41.666Z,6.40
2018-01-07T17:34:11.439Z,7.60
2018-01-07T17:36:40.374Z,7.13
2018-01-07T17:39:09.352Z,6.47
2018-01-07T17:41:38.227Z,6.20
2018-01-07T17:44:07.718Z,8.97
2018-01-07T17:46:36.615Z,7.30
2018-01-07T17:49:05.926Z,7.30
2018-01-07T17:51:34.966Z,7.73
2018-01-07T17:54:03.839Z,6.97
2018-01-07T17:56:32.736Z,9.23
2018-01-07T17:59:01.684Z,9.13
2018-01-07T18:01:30.589Z,7.00
2018-01-07T18:03:59.851Z,9.60
2018-01-07T18:06:28.815Z,10.43
2018-01-07T18:08:57.694Z,6.40
2018-01-07T18:11:26.572Z,8.97
2018-01-07T18:13:55.722Z,9.37
2018-01-07T18:16:24.699Z,8.80
2018-01-07T18:18:53.661Z,8.93
2018-01-07T18:21:22.978Z,10.23
2018-01-07T18:23:51.891Z,9.67
2018-01-07T18:26:21.681Z,9.57
2018-01-07T18:28:50.919Z,8.40
2018-01-07T18:31:20.583Z,9.97
2018-01-07T18:33:49.467Z,7.43
2018-01-07T18:36:18.752Z,7.90
2018-01-07T18:38:47.670Z,11.00
2018-01-07T18:41:18.200Z,10.00
2018-01-07T18:43:47.134Z,10.23
2018-01-07T18:46:16.893Z,9.10
2018-01-07T18:48:45.782Z,8.30
2018-01-07T18:51:15.060Z,7.23
2018-01-07T18:53:44.322Z,9.83
2018-01-07T18:56:13.473Z,10.60
2018-01-07T18:58:42.695Z,9.70
2018-01-07T19:01:11.720Z,13.23
2018-01-07T19:03:40.603Z,9.50
2018-01-07T19:06:11.092Z,10.50
2018-01-07T19:08:39.997Z,10.90
2018-01-07T19:11:09.413Z,12.63
2018-01-07T19:13:39.028Z,12.33
2018-01-07T19:16:08.755Z,12.63
2018-01-07T19:18:38.380Z,12.90
2018-01-07T19:21:07.819Z,10.30
2018-01-07T19:23:37.303Z,12.40
2018-01-07T19:26:06.231Z,10.30
2018-01-07T19:28:36.279Z,12.30
2018-01-07T19:31:05.483Z,11.70
2018-01-07T19:33:34.943Z,11.87
2018-01-07T19:36:04.768Z,16.10
2018-01-07T19:38:34.152Z,12.10
2018-01-07T19:41:03.784Z,15.43
2018-01-07T19:43:34.564Z,12.80
2018-01-07T19:46:04.220Z,12.10
2018-01-07T19:48:33.999Z,17.77
2018-01-07T19:51:03.484Z,14.30
2018-01-07T19:53:33.461Z,14.43
2018-01-07T19:56:05.185Z,12.00
2018-01-07T19:58:35.302Z,13.40
2018-01-07T20:01:05.902Z,11.70
2018-01-07T20:03:35.685Z,10.73
2018-01-07T20:06:06.225Z,13.00
2018-01-07T20:08:36.282Z,13.03
2018-01-07T20:11:06.179Z,15.07
2018-01-07T20:13:36.107Z,13.37
2018-01-07T20:16:07.296Z,13.93
2018-01-07T20:18:37.941Z,14.03
2018-01-07T20:21:07.879Z,14.77
2018-01-07T20:23:38.484Z,15.60
2018-01-07T20:26:09.437Z,13.00
2018-01-07T20:28:39.968Z,16.80
2018-01-07T20:31:10.113Z,17.07
2018-01-07T20:33:40.217Z,13.60
2018-01-07T20:36:11.999Z,16.63
2018-01-07T20:38:41.964Z,15.93
2018-01-07T20:41:13.420Z,15.37
2018-01-07T20:43:43.482Z,11.97
2018-01-07T20:46:13.771Z,17.23
2018-01-07T20:48:43.460Z,15.83
2018-01-07T20:51:15.759Z,12.30
2018-01-07T20:53:45.546Z,20.50
2018-01-07T20:56:15.928Z,15.43
2018-01-07T20:58:45.013Z,15.73
2018-01-07T21:01:15.499Z,14.13
2018-01-07T21:03:44.667Z,18.83
2018-01-07T21:06:13.725Z,17.13
2018-01-07T21:08:42.738Z,15.20
2018-01-07T21:11:11.887Z,17.13
2018-01-07T21:13:41.040Z,12.47
2018-01-07T21:16:10.017Z,11.03
2018-01-07T21:18:38.931Z,14.07
2018-01-07T21:21:08.187Z,13.13
2018-01-07T21:23:37.307Z,14.87
2018-01-07T21:26:06.270Z,13.63
2018-01-07T21:28:36.471Z,17.50
2018-01-07T21:31:06.396Z,22.03
2018-01-07T21:33:36.315Z,16.67
2018-01-07T21:36:05.221Z,19.20
2018-01-07T21:38:34.466Z,14.70
2018-01-07T21:41:03.414Z,17.53
2018-01-07T21:43:32.418Z,15.83
2018-01-07T21:46:01.543Z,13.03
2018-01-07T21:48:30.439Z,14.03
2018-01-07T21:50:59.345Z,15.00
2018-01-07T21:53:28.818Z,14.10
2018-01-07T21:55:57.721Z,14.37
2018-01-07T21:58:26.784Z,16.03
2018-01-07T22:01:01.650Z,16.87
2018-01-07T22:03:36.400Z,16.67
2018-01-07T22:06:11.314Z,19.00
2018-01-07T22:08:40.267Z,17.20
2018-01-07T22:11:09.151Z,18.17
2018-01-07T22:13:38.385Z,14.10
2018-01-07T22:16:07.262Z,18.83
2018-01-07T22:18:36.166Z,15.60
2018-01-07T22:21:05.170Z,14.80
2018-01-07T22:23:34.118Z,16.90
2018-01-07T22:26:02.996Z,18.33
2018-01-07T22:28:32.435Z,17.37
2018-01-07T23:53:01.391Z,14.53
2018-01-07T23:55:30.607Z,17.37
2018-01-07T23:58:00.686Z,17.80
